Austell, Georgia
Current Conditions -  °F | °C
As of 3:53 PM on Monday 24 Nov 2014 (Local Time) from KFTY Reporting Station
Clear Clear  
Wind Chill: 75°   Ceiling: Unl
Heat Index: 75°   Visibility: 10mi
Dew Point: 49°   Wind: 8mph
Humidity: 40%   Direction: 240°WSW
Pressure: 29.8"   Gusts: NA
Location:  33.82°N, 84.64°W
Report Text: KFTY 242053Z 24007KT 10SM CLR 24/09 A2980 RMK AO2 SLP085 T02390094 53002
Loading
Personal Weather Stations






























Interactive Weather Map New forecast layout! Learn more

10-Day Weather Forecast

Advertisements
Track Severe Weather on mobile